sensor_id;sensor_type;location;lat;lon;timestamp;pressure;altitude;pressure_sealevel;temperature;humidity
58385;BME280;44185;47.844;8.966;2022-08-27T00:02:08;96054.84;;;17.04;100.00
58385;BME280;44185;47.844;8.966;2022-08-27T00:04:34;96049.97;;;17.08;100.00
58385;BME280;44185;47.844;8.966;2022-08-27T00:07:01;96052.00;;;17.06;100.00
58385;BME280;44185;47.844;8.966;2022-08-27T00:09:28;96052.09;;;17.12;100.00
58385;BME280;44185;47.844;8.966;2022-08-27T00:11:54;96050.81;;;17.08;100.00
58385;BME280;44185;47.844;8.966;2022-08-27T00:14:20;96042.06;;;17.15;100.00
58385;BME280;44185;47.844;8.966;2022-08-27T00:16:45;96046.47;;;17.07;100.00
58385;BME280;44185;47.844;8.966;2022-08-27T00:19:11;96039.63;;;17.05;100.00
58385;BME280;44185;47.844;8.966;2022-08-27T00:21:36;96034.00;;;16.99;100.00
58385;BME280;44185;47.844;8.966;2022-08-27T00:24:02;96046.53;;;16.99;100.00
58385;BME280;44185;47.844;8.966;2022-08-27T00:26:29;96035.84;;;16.99;100.00
58385;BME280;44185;47.844;8.966;2022-08-27T00:28:56;96043.09;;;16.90;100.00
58385;BME280;44185;47.844;8.966;2022-08-27T00:31:21;96034.94;;;16.83;100.00
58385;BME280;44185;47.844;8.966;2022-08-27T00:33:47;96030.66;;;16.74;100.00
58385;BME280;44185;47.844;8.966;2022-08-27T00:36:13;96041.81;;;16.77;100.00
58385;BME280;44185;47.844;8.966;2022-08-27T00:38:39;96036.63;;;16.84;100.00
58385;BME280;44185;47.844;8.966;2022-08-27T00:41:07;96041.25;;;16.90;100.00
58385;BME280;44185;47.844;8.966;2022-08-27T00:43:45;96027.34;;;16.95;100.00
58385;BME280;44185;47.844;8.966;2022-08-27T00:46:18;96028.00;;;16.97;100.00
58385;BME280;44185;47.844;8.966;2022-08-27T00:48:45;96032.56;;;16.88;100.00
58385;BME280;44185;47.844;8.966;2022-08-27T00:51:12;96034.44;;;16.88;100.00
58385;BME280;44185;47.844;8.966;2022-08-27T00:53:37;96023.00;;;16.94;100.00
58385;BME280;44185;47.844;8.966;2022-08-27T00:56:07;96026.16;;;16.98;100.00
58385;BME280;44185;47.844;8.966;2022-08-27T00:58:36;96027.31;;;17.04;100.00
58385;BME280;44185;47.844;8.966;2022-08-27T01:01:06;96021.13;;;17.03;100.00
58385;BME280;44185;47.844;8.966;2022-08-27T01:03:33;96022.13;;;17.02;100.00
58385;BME280;44185;47.844;8.966;2022-08-27T01:05:59;96021.47;;;17.00;100.00
58385;BME280;44185;47.844;8.966;2022-08-27T01:08:28;96009.66;;;16.94;100.00
58385;BME280;44185;47.844;8.966;2022-08-27T01:10:55;96009.09;;;16.99;100.00
58385;BME280;44185;47.844;8.966;2022-08-27T01:13:24;96004.13;;;16.96;100.00
58385;BME280;44185;47.844;8.966;2022-08-27T01:15:50;96001.84;;;17.08;100.00
58385;BME280;44185;47.844;8.966;2022-08-27T01:18:18;95999.28;;;17.15;100.00
58385;BME280;44185;47.844;8.966;2022-08-27T01:20:49;95997.44;;;17.15;100.00
58385;BME280;44185;47.844;8.966;2022-08-27T01:23:20;96001.97;;;17.15;100.00
58385;BME280;44185;47.844;8.966;2022-08-27T01:25:49;95997.34;;;17.08;100.00
58385;BME280;44185;47.844;8.966;2022-08-27T01:28:16;96005.91;;;17.04;100.00
58385;BME280;44185;47.844;8.966;2022-08-27T01:30:42;96004.00;;;16.89;100.00
58385;BME280;44185;47.844;8.966;2022-08-27T01:33:09;95997.78;;;16.73;100.00
58385;BME280;44185;47.844;8.966;2022-08-27T01:35:35;96002.91;;;16.75;100.00
58385;BME280;44185;47.844;8.966;2022-08-27T01:38:01;96014.44;;;16.75;100.00
58385;BME280;44185;47.844;8.966;2022-08-27T01:40:27;96009.25;;;16.82;100.00
58385;BME280;44185;47.844;8.966;2022-08-27T01:42:54;96007.31;;;16.67;100.00
58385;BME280;44185;47.844;8.966;2022-08-27T01:45:23;96013.38;;;16.61;100.00
58385;BME280;44185;47.844;8.966;2022-08-27T01:47:49;96008.03;;;16.61;100.00
58385;BME280;44185;47.844;8.966;2022-08-27T01:50:16;95999.88;;;16.54;100.00
58385;BME280;44185;47.844;8.966;2022-08-27T01:52:42;96003.59;;;16.53;100.00
58385;BME280;44185;47.844;8.966;2022-08-27T01:55:10;96002.25;;;16.49;100.00
58385;BME280;44185;47.844;8.966;2022-08-27T01:57:36;96007.25;;;16.52;100.00
58385;BME280;44185;47.844;8.966;2022-08-27T02:00:04;95999.59;;;16.49;100.00
58385;BME280;44185;47.844;8.966;2022-08-27T02:02:31;96001.25;;;16.50;100.00
58385;BME280;44185;47.844;8.966;2022-08-27T02:04:57;95997.59;;;16.43;100.00
58385;BME280;44185;47.844;8.966;2022-08-27T02:07:22;95996.13;;;16.40;100.00
58385;BME280;44185;47.844;8.966;2022-08-27T02:09:48;95994.78;;;16.44;100.00
58385;BME280;44185;47.844;8.966;2022-08-27T02:12:13;95989.84;;;16.56;100.00
58385;BME280;44185;47.844;8.966;2022-08-27T02:14:39;95987.25;;;16.48;100.00
58385;BME280;44185;47.844;8.966;2022-08-27T02:17:06;95989.28;;;16.38;100.00
58385;BME280;44185;47.844;8.966;2022-08-27T02:19:31;95984.25;;;16.43;100.00
58385;BME280;44185;47.844;8.966;2022-08-27T02:21:56;95987.91;;;16.50;100.00
58385;BME280;44185;47.844;8.966;2022-08-27T02:24:22;95994.19;;;16.58;100.00
58385;BME280;44185;47.844;8.966;2022-08-27T02:26:47;95988.75;;;16.51;100.00
58385;BME280;44185;47.844;8.966;2022-08-27T02:29:13;95993.41;;;16.49;100.00
58385;BME280;44185;47.844;8.966;2022-08-27T02:31:38;95991.09;;;16.45;100.00
58385;BME280;44185;47.844;8.966;2022-08-27T02:34:05;95989.94;;;16.48;100.00
58385;BME280;44185;47.844;8.966;2022-08-27T02:36:31;95984.25;;;16.43;100.00
58385;BME280;44185;47.844;8.966;2022-08-27T02:38:57;95983.25;;;16.44;100.00
58385;BME280;44185;47.844;8.966;2022-08-27T02:41:22;95983.44;;;16.42;100.00
58385;BME280;44185;47.844;8.966;2022-08-27T02:43:48;95989.78;;;16.41;100.00
58385;BME280;44185;47.844;8.966;2022-08-27T02:46:13;95988.97;;;16.32;100.00
58385;BME280;44185;47.844;8.966;2022-08-27T02:48:39;95985.59;;;16.47;100.00
58385;BME280;44185;47.844;8.966;2022-08-27T02:51:07;95984.44;;;16.41;100.00
58385;BME280;44185;47.844;8.966;2022-08-27T02:53:34;95986.81;;;16.36;100.00
58385;BME280;44185;47.844;8.966;2022-08-27T02:56:00;95989.28;;;16.38;100.00
58385;BME280;44185;47.844;8.966;2022-08-27T02:58:26;95985.84;;;16.29;100.00
58385;BME280;44185;47.844;8.966;2022-08-27T03:00:52;95988.00;;;16.33;100.00
58385;BME280;44185;47.844;8.966;2022-08-27T03:03:17;95984.03;;;16.29;100.00
58385;BME280;44185;47.844;8.966;2022-08-27T03:05:43;95987.16;;;16.33;100.00
58385;BME280;44185;47.844;8.966;2022-08-27T03:08:10;95983.00;;;16.30;100.00
58385;BME280;44185;47.844;8.966;2022-08-27T03:10:35;95983.19;;;16.29;100.00
58385;BME280;44185;47.844;8.966;2022-08-27T03:13:01;95980.50;;;16.29;100.00
58385;BME280;44185;47.844;8.966;2022-08-27T03:15:27;95985.09;;;16.43;100.00
58385;BME280;44185;47.844;8.966;2022-08-27T03:17:52;95978.91;;;16.43;100.00
58385;BME280;44185;47.844;8.966;2022-08-27T03:20:18;95979.75;;;16.43;100.00
58385;BME280;44185;47.844;8.966;2022-08-27T03:22:43;95980.59;;;16.44;100.00
58385;BME280;44185;47.844;8.966;2022-08-27T03:25:11;95979.28;;;16.40;100.00
58385;BME280;44185;47.844;8.966;2022-08-27T03:27:37;95967.94;;;16.38;100.00
58385;BME280;44185;47.844;8.966;2022-08-27T03:30:03;95967.72;;;16.48;100.00
58385;BME280;44185;47.844;8.966;2022-08-27T03:32:29;95963.97;;;16.57;100.00
58385;BME280;44185;47.844;8.966;2022-08-27T03:34:56;95964.75;;;16.66;100.00
58385;BME280;44185;47.844;8.966;2022-08-27T03:37:21;95966.34;;;16.52;100.00
58385;BME280;44185;47.844;8.966;2022-08-27T03:39:47;95967.88;;;16.46;100.00
58385;BME280;44185;47.844;8.966;2022-08-27T03:42:14;95960.09;;;16.36;100.00
58385;BME280;44185;47.844;8.966;2022-08-27T03:44:39;95959.22;;;16.44;100.00
58385;BME280;44185;47.844;8.966;2022-08-27T03:47:05;95956.91;;;16.41;100.00
58385;BME280;44185;47.844;8.966;2022-08-27T03:49:30;95962.25;;;16.41;100.00
58385;BME280;44185;47.844;8.966;2022-08-27T03:51:56;95957.88;;;16.48;100.00
58385;BME280;44185;47.844;8.966;2022-08-27T03:54:21;95951.22;;;16.44;100.00
58385;BME280;44185;47.844;8.966;2022-08-27T03:56:47;95957.34;;;16.53;100.00
58385;BME280;44185;47.844;8.966;2022-08-27T03:59:14;95957.50;;;16.51;100.00
58385;BME280;44185;47.844;8.966;2022-08-27T04:01:39;95957.03;;;16.48;100.00
58385;BME280;44185;47.844;8.966;2022-08-27T04:04:05;95948.84;;;16.49;100.00
58385;BME280;44185;47.844;8.966;2022-08-27T04:06:32;95949.50;;;16.51;100.00
58385;BME280;44185;47.844;8.966;2022-08-27T04:08:57;95945.88;;;16.44;100.00
58385;BME280;44185;47.844;8.966;2022-08-27T04:11:23;95942.00;;;16.47;100.00
58385;BME280;44185;47.844;8.966;2022-08-27T04:13:48;95948.84;;;16.49;100.00
58385;BME280;44185;47.844;8.966;2022-08-27T04:16:15;95937.50;;;16.47;100.00
58385;BME280;44185;47.844;8.966;2022-08-27T04:18:41;95941.38;;;16.44;100.00
58385;BME280;44185;47.844;8.966;2022-08-27T04:21:09;95945.03;;;16.43;100.00
58385;BME280;44185;47.844;8.966;2022-08-27T04:23:35;95943.91;;;16.38;100.00
58385;BME280;44185;47.844;8.966;2022-08-27T04:26:03;95947.09;;;16.33;100.00
58385;BME280;44185;47.844;8.966;2022-08-27T04:28:28;95941.13;;;16.31;100.00
58385;BME280;44185;47.844;8.966;2022-08-27T04:30:54;95946.25;;;16.32;100.00
58385;BME280;44185;47.844;8.966;2022-08-27T04:33:20;95943.19;;;16.20;100.00
58385;BME280;44185;47.844;8.966;2022-08-27T04:35:46;95928.00;;;16.21;100.00
58385;BME280;44185;47.844;8.966;2022-08-27T04:38:12;95942.00;;;16.23;100.00
58385;BME280;44185;47.844;8.966;2022-08-27T04:40:37;95942.22;;;16.13;100.00
58385;BME280;44185;47.844;8.966;2022-08-27T04:43:02;95942.75;;;16.08;100.00
58385;BME280;44185;47.844;8.966;2022-08-27T04:45:28;95949.25;;;16.06;100.00
58385;BME280;44185;47.844;8.966;2022-08-27T04:47:53;95947.88;;;16.18;100.00
58385;BME280;44185;47.844;8.966;2022-08-27T04:50:20;95949.19;;;16.14;100.00
58385;BME280;44185;47.844;8.966;2022-08-27T04:52:46;95950.38;;;16.11;100.00
58385;BME280;44185;47.844;8.966;2022-08-27T04:55:12;95952.59;;;16.08;100.00
58385;BME280;44185;47.844;8.966;2022-08-27T04:57:37;95952.41;;;16.09;100.00
58385;BME280;44185;47.844;8.966;2022-08-27T05:00:03;95951.09;;;16.05;100.00
58385;BME280;44185;47.844;8.966;2022-08-27T05:02:29;95958.56;;;16.10;100.00
58385;BME280;44185;47.844;8.966;2022-08-27T05:04:54;95955.56;;;16.13;100.00
58385;BME280;44185;47.844;8.966;2022-08-27T05:07:21;95956.56;;;16.12;100.00
58385;BME280;44185;47.844;8.966;2022-08-27T05:09:46;95959.19;;;16.20;100.00
58385;BME280;44185;47.844;8.966;2022-08-27T05:12:12;95962.22;;;16.17;100.00
58385;BME280;44185;47.844;8.966;2022-08-27T05:14:37;95964.53;;;16.20;100.00
58385;BME280;44185;47.844;8.966;2022-08-27T05:17:03;95967.31;;;16.27;100.00
58385;BME280;44185;47.844;8.966;2022-08-27T05:19:28;95958.88;;;16.15;100.00
58385;BME280;44185;47.844;8.966;2022-08-27T05:21:54;95959.31;;;16.27;100.00
58385;BME280;44185;47.844;8.966;2022-08-27T05:24:21;95963.34;;;16.23;100.00
58385;BME280;44185;47.844;8.966;2022-08-27T05:26:48;95961.88;;;16.20;100.00
58385;BME280;44185;47.844;8.966;2022-08-27T05:29:13;95962.69;;;16.21;100.00
58385;BME280;44185;47.844;8.966;2022-08-27T05:31:40;95963.88;;;16.18;100.00
58385;BME280;44185;47.844;8.966;2022-08-27T05:34:05;95960.63;;;16.31;100.00
58385;BME280;44185;47.844;8.966;2022-08-27T05:36:33;95960.97;;;16.28;100.00
58385;BME280;44185;47.844;8.966;2022-08-27T05:39:00;95955.75;;;16.35;100.00
58385;BME280;44185;47.844;8.966;2022-08-27T05:41:29;95971.03;;;16.50;100.00
58385;BME280;44185;47.844;8.966;2022-08-27T05:43:57;95960.28;;;16.34;100.00
58385;BME280;44185;47.844;8.966;2022-08-27T05:46:24;95959.41;;;16.42;100.00
58385;BME280;44185;47.844;8.966;2022-08-27T05:48:51;95954.72;;;16.44;100.00
58385;BME280;44185;47.844;8.966;2022-08-27T05:51:18;95964.38;;;16.45;100.00
58385;BME280;44185;47.844;8.966;2022-08-27T05:53:44;95962.03;;;16.51;100.00
58385;BME280;44185;47.844;8.966;2022-08-27T05:56:13;95965.34;;;16.53;100.00
58385;BME280;44185;47.844;8.966;2022-08-27T05:58:40;95965.66;;;16.58;100.00
58385;BME280;44185;47.844;8.966;2022-08-27T06:01:05;95964.47;;;16.61;100.00
58385;BME280;44185;47.844;8.966;2022-08-27T06:03:31;95970.41;;;16.71;100.00
58385;BME280;44185;47.844;8.966;2022-08-27T06:06:00;95973.19;;;16.78;100.00
58385;BME280;44185;47.844;8.966;2022-08-27T06:08:25;95975.50;;;16.81;100.00
58385;BME280;44185;47.844;8.966;2022-08-27T06:10:51;95972.59;;;16.91;100.00
58385;BME280;44185;47.844;8.966;2022-08-27T06:13:16;95967.53;;;16.96;100.00
58385;BME280;44185;47.844;8.966;2022-08-27T06:15:43;95970.03;;;16.98;100.00
58385;BME280;44185;47.844;8.966;2022-08-27T06:18:09;95960.94;;;17.07;100.00
58385;BME280;44185;47.844;8.966;2022-08-27T06:20:34;95966.56;;;17.12;100.00
58385;BME280;44185;47.844;8.966;2022-08-27T06:22:59;95965.88;;;17.19;100.00
58385;BME280;44185;47.844;8.966;2022-08-27T06:25:25;95969.88;;;17.15;100.00
58385;BME280;44185;47.844;8.966;2022-08-27T06:27:50;95971.06;;;17.12;100.00
58385;BME280;44185;47.844;8.966;2022-08-27T06:30:16;95971.63;;;17.07;100.00
58385;BME280;44185;47.844;8.966;2022-08-27T06:32:43;95968.56;;;17.19;100.00
58385;BME280;44185;47.844;8.966;2022-08-27T06:35:08;95972.81;;;17.28;100.00
58385;BME280;44185;47.844;8.966;2022-08-27T06:37:34;95969.13;;;17.29;100.00
58385;BME280;44185;47.844;8.966;2022-08-27T06:39:59;95972.56;;;17.38;100.00
58385;BME280;44185;47.844;8.966;2022-08-27T06:42:25;95977.16;;;17.44;100.00
58385;BME280;44185;47.844;8.966;2022-08-27T06:44:50;95972.94;;;17.50;100.00
58385;BME280;44185;47.844;8.966;2022-08-27T06:47:16;95977.28;;;17.51;100.00
58385;BME280;44185;47.844;8.966;2022-08-27T06:49:43;95980.03;;;17.58;100.00
58385;BME280;44185;47.844;8.966;2022-08-27T06:52:08;95979.19;;;17.58;100.00
58385;BME280;44185;47.844;8.966;2022-08-27T06:54:34;95974.31;;;17.61;100.00
58385;BME280;44185;47.844;8.966;2022-08-27T06:56:59;95974.31;;;17.61;100.00
58385;BME280;44185;47.844;8.966;2022-08-27T06:59:25;95977.44;;;17.50;100.00
58385;BME280;44185;47.844;8.966;2022-08-27T07:01:51;95978.28;;;17.50;100.00
58385;BME280;44185;47.844;8.966;2022-08-27T07:04:19;95977.84;;;17.62;100.00
58385;BME280;44185;47.844;8.966;2022-08-27T07:06:46;95975.34;;;17.75;100.00
58385;BME280;44185;47.844;8.966;2022-08-27T07:09:12;95979.88;;;17.75;100.00
58385;BME280;44185;47.844;8.966;2022-08-27T07:11:37;95981.91;;;17.88;100.00
58385;BME280;44185;47.844;8.966;2022-08-27T07:14:04;95981.78;;;17.81;100.00
58385;BME280;44185;47.844;8.966;2022-08-27T07:16:29;95980.78;;;17.67;100.00
58385;BME280;44185;47.844;8.966;2022-08-27T07:18:56;95988.19;;;17.80;100.00
58385;BME280;44185;47.844;8.966;2022-08-27T07:21:23;95982.00;;;17.79;100.00
58385;BME280;44185;47.844;8.966;2022-08-27T07:23:51;95988.53;;;17.92;100.00
58385;BME280;44185;47.844;8.966;2022-08-27T07:26:17;95988.44;;;18.00;100.00
58385;BME280;44185;47.844;8.966;2022-08-27T07:28:44;95989.53;;;18.06;100.00
58385;BME280;44185;47.844;8.966;2022-08-27T07:31:11;95986.56;;;18.16;100.00
58385;BME280;44185;47.844;8.966;2022-08-27T07:33:38;95996.38;;;18.24;100.00
58385;BME280;44185;47.844;8.966;2022-08-27T07:36:04;95985.56;;;18.32;100.00
58385;BME280;44185;47.844;8.966;2022-08-27T07:38:30;95993.13;;;18.44;100.00
58385;BME280;44185;47.844;8.966;2022-08-27T07:40:57;96002.63;;;18.47;100.00
58385;BME280;44185;47.844;8.966;2022-08-27T07:43:22;95998.38;;;18.52;100.00
58385;BME280;44185;47.844;8.966;2022-08-27T07:45:48;96003.72;;;18.52;100.00
58385;BME280;44185;47.844;8.966;2022-08-27T07:48:14;96000.75;;;18.62;100.00
58385;BME280;44185;47.844;8.966;2022-08-27T07:50:39;96001.84;;;18.68;100.00
58385;BME280;44185;47.844;8.966;2022-08-27T07:53:05;96001.38;;;18.64;100.00
58385;BME280;44185;47.844;8.966;2022-08-27T07:55:30;95999.06;;;18.61;100.00
58385;BME280;44185;47.844;8.966;2022-08-27T07:57:57;96005.56;;;18.74;100.00
58385;BME280;44185;47.844;8.966;2022-08-27T08:00:22;96000.09;;;18.82;100.00
58385;BME280;44185;47.844;8.966;2022-08-27T08:02:48;96004.66;;;18.82;100.00
58385;BME280;44185;47.844;8.966;2022-08-27T08:05:13;96004.91;;;18.87;100.00
58385;BME280;44185;47.844;8.966;2022-08-27T08:07:39;96003.28;;;18.93;100.00
58385;BME280;44185;47.844;8.966;2022-08-27T08:10:05;96007.13;;;18.83;100.00
58385;BME280;44185;47.844;8.966;2022-08-27T08:12:31;96004.78;;;18.73;100.00
58385;BME280;44185;47.844;8.966;2022-08-27T08:14:58;96002.16;;;18.43;100.00
58385;BME280;44185;47.844;8.966;2022-08-27T08:17:23;96014.69;;;18.20;100.00
58385;BME280;44185;47.844;8.966;2022-08-27T08:19:49;96013.91;;;18.11;100.00
58385;BME280;44185;47.844;8.966;2022-08-27T08:22:14;96018.09;;;17.99;100.00
58385;BME280;44185;47.844;8.966;2022-08-27T08:24:40;96008.56;;;17.96;100.00
58385;BME280;44185;47.844;8.966;2022-08-27T08:27:05;96013.63;;;18.06;100.00
58385;BME280;44185;47.844;8.966;2022-08-27T08:29:31;96017.22;;;18.14;100.00
58385;BME280;44185;47.844;8.966;2022-08-27T08:31:58;96023.78;;;18.26;100.00
58385;BME280;44185;47.844;8.966;2022-08-27T08:34:23;96016.22;;;18.30;100.00
58385;BME280;44185;47.844;8.966;2022-08-27T08:36:49;96025.53;;;18.49;100.00
58385;BME280;44185;47.844;8.966;2022-08-27T08:39:17;96026.75;;;18.68;100.00
58385;BME280;44185;47.844;8.966;2022-08-27T08:41:50;96029.59;;;18.82;100.00
58385;BME280;44185;47.844;8.966;2022-08-27T08:44:23;96021.06;;;18.94;100.00
58385;BME280;44185;47.844;8.966;2022-08-27T08:46:54;96025.84;;;18.98;100.00
58385;BME280;44185;47.844;8.966;2022-08-27T08:49:31;96024.97;;;18.54;100.00
58385;BME280;44185;47.844;8.966;2022-08-27T08:52:09;96026.22;;;18.73;100.00
58385;BME280;44185;47.844;8.966;2022-08-27T08:54:38;96019.28;;;18.42;100.00
58385;BME280;44185;47.844;8.966;2022-08-27T08:57:07;96028.22;;;18.49;100.00
58385;BME280;44185;47.844;8.966;2022-08-27T08:59:36;96027.59;;;18.69;100.00
58385;BME280;44185;47.844;8.966;2022-08-27T09:02:04;96031.47;;;18.82;100.00
58385;BME280;44185;47.844;8.966;2022-08-27T09:04:32;96029.59;;;18.82;100.00
58385;BME280;44185;47.844;8.966;2022-08-27T09:07:01;96030.38;;;18.76;100.00
58385;BME280;44185;47.844;8.966;2022-08-27T09:09:34;96025.69;;;18.63;100.00
58385;BME280;44185;47.844;8.966;2022-08-27T09:12:05;96029.13;;;18.56;100.00
58385;BME280;44185;47.844;8.966;2022-08-27T09:14:36;96033.63;;;18.56;100.00
58385;BME280;44185;47.844;8.966;2022-08-27T09:17:03;96030.72;;;18.36;100.00
58385;BME280;44185;47.844;8.966;2022-08-27T09:19:29;96031.19;;;18.24;100.00
58385;BME280;44185;47.844;8.966;2022-08-27T09:22:00;96035.06;;;18.37;100.00
58385;BME280;44185;47.844;8.966;2022-08-27T09:24:36;96033.00;;;18.54;100.00
58385;BME280;44185;47.844;8.966;2022-08-27T09:27:05;96033.63;;;18.56;100.00
58385;BME280;44185;47.844;8.966;2022-08-27T09:29:30;96040.41;;;18.37;100.00
58385;BME280;44185;47.844;8.966;2022-08-27T09:31:57;96045.50;;;18.47;100.00
58385;BME280;44185;47.844;8.966;2022-08-27T09:34:24;96038.94;;;18.49;100.00
58385;BME280;44185;47.844;8.966;2022-08-27T09:36:54;96038.47;;;18.45;100.00
58385;BME280;44185;47.844;8.966;2022-08-27T09:39:27;95998.50;;;18.29;100.00
58385;BME280;44185;47.844;8.966;2022-08-27T09:41:54;96023.97;;;18.55;100.00
58385;BME280;44185;47.844;8.966;2022-08-27T09:44:20;96024.75;;;18.55;100.00
58385;BME280;44185;47.844;8.966;2022-08-27T09:46:54;96018.06;;;18.44;100.00
58385;BME280;44185;47.844;8.966;2022-08-27T09:49:20;96039.72;;;18.65;100.00
58385;BME280;44185;47.844;8.966;2022-08-27T09:51:46;96034.69;;;18.77;100.00
58385;BME280;44185;47.844;8.966;2022-08-27T09:54:28;96032.53;;;18.87;100.00
58385;BME280;44185;47.844;8.966;2022-08-27T09:56:55;96037.97;;;18.94;100.00
58385;BME280;44185;47.844;8.966;2022-08-27T09:59:22;96029.47;;;18.90;100.00
58385;BME280;44185;47.844;8.966;2022-08-27T10:01:51;96037.19;;;19.00;100.00
58385;BME280;44185;47.844;8.966;2022-08-27T10:04:25;96034.06;;;18.97;100.00
58385;BME280;44185;47.844;8.966;2022-08-27T10:06:51;96036.56;;;18.98;100.00
58385;BME280;44185;47.844;8.966;2022-08-27T10:09:22;96030.75;;;18.95;100.00
58385;BME280;44185;47.844;8.966;2022-08-27T10:11:56;96032.53;;;19.09;100.00
58385;BME280;44185;47.844;8.966;2022-08-27T10:14:29;96027.06;;;19.18;100.00
58385;BME280;44185;47.844;8.966;2022-08-27T10:17:11;96030.41;;;19.20;100.00
58385;BME280;44185;47.844;8.966;2022-08-27T10:19:51;96027.34;;;19.23;100.00
58385;BME280;44185;47.844;8.966;2022-08-27T10:22:32;96028.00;;;19.10;100.00
58385;BME280;44185;47.844;8.966;2022-08-27T10:25:07;96037.16;;;19.16;100.00
58385;BME280;44185;47.844;8.966;2022-08-27T10:27:42;96035.03;;;19.11;100.00
58385;BME280;44185;47.844;8.966;2022-08-27T10:30:15;96035.97;;;19.18;100.00
58385;BME280;44185;47.844;8.966;2022-08-27T10:32:55;96031.88;;;19.22;100.00
58385;BME280;44185;47.844;8.966;2022-08-27T10:35:27;96032.53;;;19.09;100.00
58385;BME280;44185;47.844;8.966;2022-08-27T10:38:06;96035.34;;;19.01;100.00
58385;BME280;44185;47.844;8.966;2022-08-27T10:40:40;96038.72;;;18.88;100.00
58385;BME280;44185;47.844;8.966;2022-08-27T10:43:20;96035.97;;;19.03;100.00
58385;BME280;44185;47.844;8.966;2022-08-27T10:45:53;96032.09;;;19.06;100.00
58385;BME280;44185;47.844;8.966;2022-08-27T10:48:22;96033.09;;;18.83;100.00
58385;BME280;44185;47.844;8.966;2022-08-27T10:50:56;96034.28;;;18.58;100.00
58385;BME280;44185;47.844;8.966;2022-08-27T10:53:32;96026.81;;;18.53;100.00
58385;BME280;44185;47.844;8.966;2022-08-27T10:56:09;96024.06;;;18.68;100.00
58385;BME280;44185;47.844;8.966;2022-08-27T10:58:52;96020.97;;;18.65;100.00
58385;BME280;44185;47.844;8.966;2022-08-27T11:01:29;96013.94;;;18.64;100.00
58385;BME280;44185;47.844;8.966;2022-08-27T11:04:01;96019.13;;;18.65;100.00
58385;BME280;44185;47.844;8.966;2022-08-27T11:06:31;96020.75;;;18.29;100.00
58385;BME280;44185;47.844;8.966;2022-08-27T11:09:00;96014.19;;;18.32;100.00
58385;BME280;44185;47.844;8.966;2022-08-27T11:11:33;96015.56;;;18.43;100.00
58385;BME280;44185;47.844;8.966;2022-08-27T11:14:04;96020.06;;;18.58;100.00
58385;BME280;44185;47.844;8.966;2022-08-27T11:16:34;96021.19;;;18.48;100.00
58385;BME280;44185;47.844;8.966;2022-08-27T11:19:05;96023.34;;;18.75;100.00
58385;BME280;44185;47.844;8.966;2022-08-27T11:21:40;96023.41;;;18.82;100.00
58385;BME280;44185;47.844;8.966;2022-08-27T11:24:19;96019.78;;;18.89;100.00
58385;BME280;44185;47.844;8.966;2022-08-27T11:26:49;96022.47;;;18.89;100.00
58385;BME280;44185;47.844;8.966;2022-08-27T11:29:21;96023.34;;;18.75;100.00
58385;BME280;44185;47.844;8.966;2022-08-27T11:31:53;96014.16;;;18.84;100.00
58385;BME280;44185;47.844;8.966;2022-08-27T11:34:24;96015.19;;;18.83;100.00
58385;BME280;44185;47.844;8.966;2022-08-27T11:42:45;96008.72;;;18.99;100.00
58385;BME280;44185;47.844;8.966;2022-08-27T11:45:17;96002.91;;;18.74;100.00
58385;BME280;44185;47.844;8.966;2022-08-27T11:47:50;95997.03;;;18.63;100.00
58385;BME280;44185;47.844;8.966;2022-08-27T11:50:18;96003.03;;;18.65;100.00
58385;BME280;44185;47.844;8.966;2022-08-27T11:52:55;95992.81;;;18.54;100.00
58385;BME280;44185;47.844;8.966;2022-08-27T11:55:25;95991.22;;;18.60;100.00
58385;BME280;44185;47.844;8.966;2022-08-27T11:58:04;95993.84;;;18.75;100.00
58385;BME280;44185;47.844;8.966;2022-08-27T12:00:33;95984.44;;;18.79;100.00
58385;BME280;44185;47.844;8.966;2022-08-27T12:03:01;95994.03;;;18.95;100.00
58385;BME280;44185;47.844;8.966;2022-08-27T12:05:35;95988.94;;;19.22;100.00
58385;BME280;44185;47.844;8.966;2022-08-27T12:08:12;95992.47;;;19.52;100.00
58385;BME280;44185;47.844;8.966;2022-08-27T12:10:50;95985.44;;;19.51;100.00
58385;BME280;44185;47.844;8.966;2022-08-27T12:13:23;95983.03;;;19.56;100.00
58385;BME280;44185;47.844;8.966;2022-08-27T12:16:03;95975.09;;;19.83;100.00
58385;BME280;44185;47.844;8.966;2022-08-27T12:18:41;95981.22;;;20.06;100.00
58385;BME280;44185;47.844;8.966;2022-08-27T12:21:18;95983.78;;;20.14;100.00
58385;BME280;44185;47.844;8.966;2022-08-27T12:24:01;95981.78;;;20.30;100.00
58385;BME280;44185;47.844;8.966;2022-08-27T12:26:30;95971.25;;;20.42;99.66
58385;BME280;44185;47.844;8.966;2022-08-27T12:29:20;95977.38;;;20.15;93.38
58385;BME280;44185;47.844;8.966;2022-08-27T12:31:47;95977.69;;;20.41;96.68
58385;BME280;44185;47.844;8.966;2022-08-27T12:34:14;95978.31;;;20.00;100.00
58385;BME280;44185;47.844;8.966;2022-08-27T12:36:40;95971.19;;;19.79;100.00
58385;BME280;44185;47.844;8.966;2022-08-27T12:39:11;95962.44;;;19.70;100.00
58385;BME280;44185;47.844;8.966;2022-08-27T12:41:44;95969.78;;;19.54;100.00
58385;BME280;44185;47.844;8.966;2022-08-27T12:44:12;95963.09;;;19.43;100.00
58385;BME280;44185;47.844;8.966;2022-08-27T12:46:45;95965.84;;;19.50;100.00
58385;BME280;44185;47.844;8.966;2022-08-27T12:49:15;95960.97;;;19.61;100.00
58385;BME280;44185;47.844;8.966;2022-08-27T12:51:43;95956.59;;;19.60;100.00
58385;BME280;44185;47.844;8.966;2022-08-27T12:54:17;95955.44;;;19.69;100.00
58385;BME280;44185;47.844;8.966;2022-08-27T12:56:54;95954.69;;;19.89;99.47
58385;BME280;44185;47.844;8.966;2022-08-27T12:59:52;95958.00;;;19.84;100.00
58385;BME280;44185;47.844;8.966;2022-08-27T13:02:39;95955.09;;;19.86;100.00